createdAt,value
2023-06-19T00:01:09.332Z,6.97
2023-06-19T00:03:36.110Z,6.60
2023-06-19T00:06:03.123Z,6.57
2023-06-19T00:08:31.817Z,5.97
2023-06-19T00:10:58.783Z,6.80
2023-06-19T00:13:25.752Z,6.55
2023-06-19T00:15:52.511Z,6.95
2023-06-19T00:18:20.942Z,6.05
2023-06-19T00:20:47.842Z,6.75
2023-06-19T00:23:18.271Z,6.65
2023-06-19T00:25:45.726Z,6.75
2023-06-19T00:28:16.004Z,6.22
2023-06-19T00:30:43.077Z,6.25
2023-06-19T00:33:10.001Z,6.35
2023-06-19T00:35:36.843Z,6.28
2023-06-19T00:38:03.997Z,6.70
2023-06-19T00:40:32.721Z,6.55
2023-06-19T00:42:59.952Z,6.22
2023-06-19T00:45:27.731Z,6.50
2023-06-19T00:47:55.624Z,6.78
2023-06-19T00:50:23.185Z,6.00
2023-06-19T00:52:50.239Z,6.05
2023-06-19T00:55:18.239Z,6.57
2023-06-19T00:57:45.166Z,6.70
2023-06-19T01:00:13.632Z,6.35
2023-06-19T01:02:40.964Z,7.18
2023-06-19T01:05:08.386Z,7.28
2023-06-19T01:08:00.176Z,5.97
2023-06-19T01:10:36.502Z,7.13
2023-06-19T01:13:21.114Z,6.47
2023-06-19T01:15:54.412Z,6.72
2023-06-19T01:18:28.516Z,5.80
2023-06-19T01:20:55.229Z,6.85
2023-06-19T01:23:21.936Z,6.32
2023-06-19T01:25:48.961Z,6.43
2023-06-19T01:28:22.758Z,6.55
2023-06-19T01:30:49.815Z,5.68
2023-06-19T01:33:28.025Z,6.40
2023-06-19T01:35:56.861Z,6.70
2023-06-19T01:38:26.901Z,6.70
2023-06-19T01:40:55.787Z,7.38
2023-06-19T01:43:23.148Z,6.20
2023-06-19T01:45:50.033Z,6.45
2023-06-19T01:48:16.849Z,6.25
2023-06-19T01:50:48.550Z,6.97
2023-06-19T01:53:16.250Z,6.50
2023-06-19T01:55:43.403Z,7.03
2023-06-19T01:58:10.222Z,6.95
2023-06-19T02:00:36.942Z,7.18
2023-06-19T02:03:03.750Z,6.90
2023-06-19T02:05:31.770Z,7.90
2023-06-19T02:07:58.800Z,7.30
2023-06-19T02:10:25.648Z,6.50
2023-06-19T02:12:52.445Z,6.95
2023-06-19T02:15:19.161Z,7.00
2023-06-19T02:17:45.923Z,7.10
2023-06-19T02:20:13.077Z,7.30
2023-06-19T02:22:40.684Z,7.30
2023-06-19T02:25:08.050Z,6.13
2023-06-19T02:27:34.816Z,6.43
2023-06-19T02:30:01.722Z,7.32
2023-06-19T02:32:28.450Z,7.50
2023-06-19T02:34:55.284Z,6.97
2023-06-19T02:37:21.969Z,7.53
2023-06-19T02:39:48.708Z,7.47
2023-06-19T02:42:15.800Z,7.20
2023-06-19T02:44:43.634Z,7.60
2023-06-19T02:47:10.762Z,7.85
2023-06-19T02:49:37.568Z,7.97
2023-06-19T02:52:05.674Z,8.00
2023-06-19T02:54:33.382Z,9.82
2023-06-19T02:57:01.148Z,7.55
2023-06-19T02:59:28.869Z,8.27
2023-06-19T03:01:55.546Z,7.47
2023-06-19T03:04:22.617Z,7.95
2023-06-19T03:06:49.290Z,8.68
2023-06-19T03:09:16.544Z,8.35
2023-06-19T03:11:43.536Z,8.32
2023-06-19T03:14:10.492Z,8.73
2023-06-19T03:16:37.261Z,8.95
2023-06-19T03:19:04.295Z,8.90
2023-06-19T03:21:31.018Z,9.07
2023-06-19T03:23:57.760Z,8.27
2023-06-19T03:26:26.106Z,9.38
2023-06-19T03:28:52.897Z,8.35
2023-06-19T03:31:19.738Z,8.82
2023-06-19T03:33:46.509Z,8.35
2023-06-19T03:36:13.231Z,9.00
2023-06-19T03:38:39.998Z,9.10
2023-06-19T03:41:06.710Z,9.07
2023-06-19T03:43:33.402Z,8.50
2023-06-19T03:46:00.166Z,8.40
2023-06-19T03:48:26.967Z,9.30
2023-06-19T03:50:53.694Z,8.90
2023-06-19T03:53:20.427Z,9.20
2023-06-19T03:55:47.267Z,8.95
2023-06-19T03:58:14.155Z,9.40
2023-06-19T04:00:42.397Z,9.25
2023-06-19T04:03:10.782Z,8.93
2023-06-19T04:05:37.727Z,8.50
2023-06-19T04:08:05.288Z,10.30
2023-06-19T04:10:33.888Z,10.13
2023-06-19T04:13:01.998Z,8.80
2023-06-19T04:15:28.745Z,9.02
2023-06-19T04:17:55.623Z,10.13
2023-06-19T04:20:22.570Z,9.85
2023-06-19T04:22:49.440Z,9.65
2023-06-19T04:25:16.227Z,9.15
2023-06-19T04:27:42.907Z,8.90
2023-06-19T04:30:09.912Z,8.93
2023-06-19T04:32:36.813Z,10.55
2023-06-19T04:35:03.891Z,9.93
2023-06-19T04:37:30.593Z,10.73
2023-06-19T04:39:57.530Z,9.82
2023-06-19T04:42:24.389Z,10.48
2023-06-19T04:44:51.120Z,10.43
2023-06-19T04:47:19.810Z,8.60
2023-06-19T04:49:47.293Z,9.43
2023-06-19T04:52:15.502Z,8.38
2023-06-19T04:54:42.325Z,9.45
2023-06-19T04:57:09.033Z,8.35
2023-06-19T04:59:35.746Z,7.45
2023-06-19T05:02:02.530Z,7.70
2023-06-19T05:04:33.921Z,8.65
2023-06-19T05:07:00.911Z,7.72
2023-06-19T05:09:27.791Z,6.57
2023-06-19T05:11:54.591Z,7.53
2023-06-19T05:14:21.608Z,7.35
2023-06-19T05:16:48.390Z,6.72
2023-06-19T05:19:15.148Z,6.75
2023-06-19T05:21:42.426Z,6.22
2023-06-19T05:24:09.279Z,5.93
2023-06-19T05:26:36.141Z,5.68
2023-06-19T05:29:03.144Z,5.30
2023-06-19T05:31:29.985Z,5.57
2023-06-19T05:33:56.728Z,5.00
2023-06-19T05:36:23.469Z,5.90
2023-06-19T05:38:56.453Z,5.57
2023-06-19T05:41:23.183Z,5.50
2023-06-19T05:43:50.041Z,5.22
2023-06-19T05:46:16.834Z,4.68
2023-06-19T05:48:43.575Z,5.10
2023-06-19T05:51:10.263Z,5.00
2023-06-19T05:53:37.093Z,5.35
2023-06-19T05:56:04.340Z,4.65
2023-06-19T05:58:32.383Z,5.57
2023-06-19T06:00:59.764Z,5.10
2023-06-19T06:03:26.711Z,4.75
2023-06-19T06:05:55.001Z,4.50
2023-06-19T06:08:21.999Z,4.63
2023-06-19T06:10:48.724Z,4.65
2023-06-19T06:13:15.378Z,4.70
2023-06-19T06:15:42.116Z,4.88
2023-06-19T06:18:08.842Z,5.45
2023-06-19T06:20:35.568Z,5.05
2023-06-19T06:23:02.262Z,4.50
2023-06-19T06:25:29.092Z,3.80
2023-06-19T06:27:55.823Z,3.92
2023-06-19T06:30:29.734Z,4.13
2023-06-19T06:32:56.582Z,4.65
2023-06-19T06:35:23.373Z,4.47
2023-06-19T06:37:51.144Z,4.25
2023-06-19T06:40:19.420Z,4.30
2023-06-19T06:42:46.125Z,4.82
2023-06-19T06:45:12.915Z,4.82
2023-06-19T06:47:41.227Z,4.60
2023-06-19T06:50:09.580Z,4.22
2023-06-19T06:52:36.482Z,3.58
2023-06-19T06:55:03.374Z,4.20
2023-06-19T06:57:30.075Z,3.80
2023-06-19T06:59:56.828Z,3.78
2023-06-19T07:02:23.880Z,4.13
2023-06-19T07:04:51.096Z,4.15
2023-06-19T07:07:17.802Z,3.80
2023-06-19T07:09:44.598Z,3.70
2023-06-19T07:12:11.679Z,4.00
2023-06-19T07:14:38.443Z,3.30
2023-06-19T07:17:08.338Z,3.55
2023-06-19T07:19:35.352Z,4.75
2023-06-19T07:22:02.724Z,3.15
2023-06-19T07:24:29.562Z,3.08
2023-06-19T07:26:57.594Z,3.50
2023-06-19T07:29:24.483Z,3.30
2023-06-19T07:31:55.217Z,3.92
2023-06-19T07:34:22.711Z,3.95
2023-06-19T07:36:49.369Z,4.40
2023-06-19T07:39:17.879Z,4.78
2023-06-19T07:41:45.737Z,4.20
2023-06-19T07:44:12.637Z,4.65
2023-06-19T07:46:39.451Z,4.53
2023-06-19T07:49:06.169Z,4.15
2023-06-19T07:51:32.872Z,3.90
2023-06-19T07:53:59.738Z,3.72
2023-06-19T07:56:26.438Z,3.30
2023-06-19T07:58:53.135Z,3.30
2023-06-19T08:01:19.855Z,3.30
2023-06-19T08:03:47.097Z,3.55
2023-06-19T08:06:13.908Z,3.45
2023-06-19T08:08:40.661Z,4.22
2023-06-19T08:11:07.336Z,3.15
2023-06-19T08:13:35.464Z,3.92
2023-06-19T08:16:03.373Z,3.60
2023-06-19T08:18:30.202Z,2.70
2023-06-19T08:20:57.024Z,3.05
2023-06-19T08:23:23.664Z,2.88
2023-06-19T08:25:52.096Z,3.10
2023-06-19T08:28:18.840Z,3.15
2023-06-19T08:30:46.854Z,3.00
2023-06-19T08:33:15.256Z,2.72
2023-06-19T08:35:42.075Z,2.78
2023-06-19T08:38:08.755Z,3.25
2023-06-19T08:40:35.674Z,3.03
2023-06-19T08:43:02.593Z,3.08
2023-06-19T08:45:29.404Z,3.10
2023-06-19T08:48:03.623Z,3.03
2023-06-19T08:50:31.575Z,3.10
2023-06-19T08:52:58.646Z,3.40
2023-06-19T08:55:26.246Z,2.83
2023-06-19T08:57:53.970Z,3.03
2023-06-19T09:00:28.588Z,2.75
2023-06-19T09:03:13.582Z,3.13
2023-06-19T09:05:51.429Z,2.72
2023-06-19T09:08:24.048Z,3.20
2023-06-19T09:11:01.819Z,2.90
2023-06-19T09:13:32.378Z,2.90
2023-06-19T09:16:09.297Z,2.40
2023-06-19T09:18:48.412Z,2.70
2023-06-19T09:21:23.185Z,3.05
2023-06-19T09:26:20.988Z,3.33
2023-06-19T09:28:48.070Z,3.28
2023-06-19T09:31:14.827Z,3.33
2023-06-19T09:33:42.241Z,2.80
2023-06-19T09:36:09.857Z,2.75
2023-06-19T09:38:44.283Z,3.00
2023-06-19T09:41:11.876Z,3.47
2023-06-19T09:43:48.748Z,3.15
2023-06-19T09:46:16.195Z,2.58
2023-06-19T09:48:44.888Z,3.17
2023-06-19T09:51:12.304Z,2.63
2023-06-19T09:53:39.064Z,3.10
2023-06-19T09:56:05.748Z,2.55
2023-06-19T09:58:33.610Z,3.08
2023-06-19T10:01:01.197Z,3.17
2023-06-19T10:03:35.210Z,3.00
2023-06-19T10:06:08.771Z,3.38
2023-06-19T10:08:43.865Z,3.00
2023-06-19T10:11:11.867Z,2.88
2023-06-19T10:13:41.257Z,3.28
2023-06-19T10:16:21.659Z,3.08
2023-06-19T10:18:49.474Z,3.03
2023-06-19T10:21:21.620Z,3.80
2023-06-19T10:23:59.403Z,3.47
2023-06-19T10:26:33.995Z,3.90
2023-06-19T10:29:01.584Z,4.18
2023-06-19T10:31:29.992Z,3.88
2023-06-19T10:33:57.089Z,4.10
2023-06-19T10:36:26.613Z,4.20
2023-06-19T10:38:53.422Z,4.72
2023-06-19T10:41:23.549Z,4.18
2023-06-19T10:44:14.111Z,3.92
2023-06-19T10:46:42.370Z,3.60
2023-06-19T10:49:11.487Z,3.70
2023-06-19T10:51:39.680Z,4.38
2023-06-19T10:54:06.810Z,4.25
2023-06-19T10:56:33.673Z,3.60
2023-06-19T10:59:14.826Z,4.13
2023-06-19T11:01:44.132Z,4.28
2023-06-19T11:04:12.939Z,4.03
2023-06-19T11:06:41.677Z,4.05
2023-06-19T11:09:09.630Z,4.35
2023-06-19T11:11:43.792Z,4.10
2023-06-19T11:14:13.509Z,4.88
2023-06-19T11:16:43.247Z,3.92
2023-06-19T11:19:14.725Z,3.90
2023-06-19T11:21:41.523Z,4.20
2023-06-19T11:24:13.515Z,4.00
2023-06-19T11:26:51.035Z,4.05
2023-06-19T11:29:19.870Z,4.13
2023-06-19T11:31:49.715Z,2.80
2023-06-19T11:34:18.084Z,3.63
2023-06-19T11:36:45.828Z,4.50
2023-06-19T11:39:16.959Z,3.92
2023-06-19T11:41:45.878Z,3.45
2023-06-19T11:44:12.737Z,4.63
2023-06-19T11:46:39.988Z,4.47
2023-06-19T11:49:21.609Z,4.50
2023-06-19T11:51:48.345Z,4.85
2023-06-19T11:54:19.290Z,4.70
2023-06-19T11:56:46.275Z,5.13
2023-06-19T11:59:13.030Z,4.70
2023-06-19T12:01:40.017Z,4.82
2023-06-19T12:04:07.666Z,5.07
2023-06-19T12:06:36.658Z,4.05
2023-06-19T12:09:05.881Z,4.40
2023-06-19T12:11:33.040Z,3.90
2023-06-19T12:13:59.724Z,4.43
2023-06-19T12:16:26.656Z,3.95
2023-06-19T12:18:54.565Z,3.63
2023-06-19T12:21:34.086Z,4.72
2023-06-19T12:24:03.210Z,5.28
2023-06-19T12:26:30.143Z,5.68
2023-06-19T12:28:56.887Z,5.53
2023-06-19T12:31:23.759Z,5.32
2023-06-19T12:33:50.556Z,5.00
2023-06-19T12:36:17.654Z,4.97
2023-06-19T12:38:44.505Z,6.07
2023-06-19T12:41:11.188Z,5.30
2023-06-19T12:43:38.096Z,5.65
2023-06-19T12:46:05.322Z,5.35
2023-06-19T12:48:33.369Z,5.03
2023-06-19T12:51:00.298Z,5.30
2023-06-19T12:53:30.683Z,5.28
2023-06-19T12:56:04.611Z,4.70
2023-06-19T12:58:33.752Z,4.82
2023-06-19T13:01:05.988Z,4.80
2023-06-19T13:03:32.858Z,4.97
2023-06-19T13:06:00.196Z,5.30
2023-06-19T13:08:27.410Z,4.95
2023-06-19T13:10:54.220Z,4.90
2023-06-19T13:13:21.067Z,4.85
2023-06-19T13:15:47.936Z,4.78
2023-06-19T13:18:15.248Z,5.30
2023-06-19T13:20:42.221Z,4.50
2023-06-19T13:23:09.639Z,4.53
2023-06-19T13:25:36.331Z,4.68
2023-06-19T13:28:03.265Z,4.40
2023-06-19T13:30:30.371Z,4.65
2023-06-19T13:32:57.111Z,4.30
2023-06-19T13:35:23.932Z,4.32
2023-06-19T13:37:50.654Z,4.57
2023-06-19T13:40:17.427Z,4.78
2023-06-19T13:42:44.200Z,5.20
2023-06-19T13:45:11.444Z,4.68
2023-06-19T13:47:38.458Z,4.70
2023-06-19T13:50:06.333Z,5.32
2023-06-19T13:52:32.998Z,4.90
2023-06-19T13:55:00.523Z,4.88
2023-06-19T13:57:27.330Z,4.82
2023-06-19T13:59:54.096Z,4.70
2023-06-19T14:02:20.880Z,5.00
2023-06-19T14:04:53.720Z,5.00
2023-06-19T14:07:23.142Z,5.00
2023-06-19T14:09:49.912Z,4.43
2023-06-19T14:12:16.961Z,4.75
2023-06-19T14:14:43.669Z,4.97
2023-06-19T14:17:10.560Z,4.47
2023-06-19T14:19:37.450Z,5.28
2023-06-19T14:22:04.342Z,4.85
2023-06-19T14:24:31.072Z,5.28
2023-06-19T14:26:57.808Z,5.95
2023-06-19T14:29:25.000Z,5.35
2023-06-19T14:31:53.020Z,5.40
2023-06-19T14:34:20.878Z,5.07
2023-06-19T14:36:47.893Z,6.15
2023-06-19T14:39:15.167Z,5.18
2023-06-19T14:41:41.912Z,5.03
2023-06-19T14:44:08.603Z,5.28
2023-06-19T14:46:40.357Z,5.53
2023-06-19T14:49:08.208Z,5.82
2023-06-19T14:51:35.153Z,5.32
2023-06-19T14:54:04.736Z,5.80
2023-06-19T14:56:31.533Z,5.75
2023-06-19T14:58:58.237Z,4.70
2023-06-19T15:01:25.012Z,4.95
2023-06-19T15:03:51.998Z,5.18
2023-06-19T15:06:18.748Z,5.20
2023-06-19T15:08:45.485Z,4.40
2023-06-19T15:11:12.348Z,5.13
2023-06-19T15:13:47.333Z,5.57
2023-06-19T15:16:14.259Z,4.85
2023-06-19T15:18:42.238Z,4.97
2023-06-19T15:21:09.118Z,6.03
2023-06-19T15:23:36.033Z,5.53
2023-06-19T15:26:02.897Z,5.40
2023-06-19T15:28:29.553Z,4.90
2023-06-19T15:30:57.787Z,4.97
2023-06-19T15:33:24.530Z,4.95
2023-06-19T15:35:52.114Z,5.30
2023-06-19T15:38:19.168Z,5.20
2023-06-19T15:40:46.987Z,5.70
2023-06-19T15:43:14.150Z,4.85
2023-06-19T15:45:40.929Z,5.32
2023-06-19T15:48:07.852Z,6.20
2023-06-19T15:50:34.726Z,5.30
2023-06-19T15:53:01.520Z,6.05
2023-06-19T15:55:28.863Z,5.82
2023-06-19T15:57:55.649Z,8.88
2023-06-19T16:00:23.000Z,11.65
2023-06-19T16:02:50.240Z,6.43
2023-06-19T16:05:17.992Z,6.82
2023-06-19T16:07:45.097Z,7.43
2023-06-19T16:10:12.067Z,7.25
2023-06-19T16:12:38.973Z,5.28
2023-06-19T16:15:06.295Z,5.47
2023-06-19T16:17:33.104Z,5.43
2023-06-19T16:20:00.219Z,5.05
2023-06-19T16:22:27.069Z,5.28
2023-06-19T16:24:59.587Z,5.72
2023-06-19T16:27:31.793Z,4.95
2023-06-19T16:29:58.802Z,7.57
2023-06-19T16:32:25.733Z,6.50
2023-06-19T16:34:52.697Z,6.25
2023-06-19T16:37:20.030Z,6.35
2023-06-19T16:39:46.964Z,6.30
2023-06-19T16:42:16.669Z,5.40
2023-06-19T16:44:43.494Z,5.05
2023-06-19T16:47:10.366Z,5.93
2023-06-19T16:49:37.419Z,6.40
2023-06-19T16:52:04.308Z,6.53
2023-06-19T16:54:31.037Z,6.72
2023-06-19T16:56:57.894Z,6.45
2023-06-19T16:59:25.277Z,7.50
2023-06-19T17:01:52.196Z,7.00
2023-06-19T17:04:20.821Z,7.40
2023-06-19T17:06:47.592Z,7.13
2023-06-19T17:09:19.595Z,6.68
2023-06-19T17:11:46.476Z,6.93
2023-06-19T17:14:13.377Z,7.47
2023-06-19T17:16:40.214Z,8.00
2023-06-19T17:19:07.162Z,6.05
2023-06-19T17:21:33.852Z,7.32
2023-06-19T17:24:00.621Z,7.65
2023-06-19T17:26:27.411Z,9.88
2023-06-19T17:28:54.136Z,9.18
2023-06-19T17:31:20.802Z,8.07
2023-06-19T17:33:47.498Z,8.30
2023-06-19T17:36:14.231Z,7.57
2023-06-19T17:38:41.181Z,7.70
2023-06-19T17:41:08.146Z,5.68
2023-06-19T17:43:34.866Z,6.18
2023-06-19T17:46:01.672Z,6.13
2023-06-19T17:48:34.022Z,7.10
2023-06-19T17:51:00.746Z,6.72
2023-06-19T17:53:27.446Z,8.90
2023-06-19T17:55:54.122Z,8.23
2023-06-19T17:58:22.690Z,8.43
2023-06-19T18:00:49.417Z,8.98
2023-06-19T18:03:16.345Z,8.65
2023-06-19T18:05:44.401Z,12.57
2023-06-19T18:08:11.141Z,10.52
2023-06-19T18:10:37.958Z,11.60
2023-06-19T18:13:04.650Z,10.80
2023-06-19T18:15:31.332Z,9.73
2023-06-19T18:17:58.202Z,9.50
2023-06-19T18:20:25.121Z,10.48
2023-06-19T18:22:52.125Z,9.95
2023-06-19T18:25:18.997Z,7.68
2023-06-19T18:27:45.698Z,6.95
2023-06-19T18:30:12.777Z,8.60
2023-06-19T18:32:39.725Z,9.20
2023-06-19T18:35:06.793Z,9.15
2023-06-19T18:37:33.870Z,9.30
2023-06-19T18:40:02.749Z,8.85
2023-06-19T18:42:30.795Z,9.90
2023-06-19T18:44:57.483Z,9.65
2023-06-19T18:47:24.317Z,9.02
2023-06-19T18:49:52.607Z,9.75
2023-06-19T18:52:19.545Z,10.05
2023-06-19T18:54:46.293Z,9.48
2023-06-19T18:57:12.984Z,9.27
2023-06-19T18:59:39.741Z,8.30
2023-06-19T19:02:08.533Z,7.90
2023-06-19T19:04:38.732Z,7.60
2023-06-19T19:07:05.911Z,7.57
2023-06-19T19:09:32.719Z,8.18
2023-06-19T19:11:59.527Z,7.90
2023-06-19T19:14:26.250Z,7.20
2023-06-19T19:16:52.992Z,7.70
2023-06-19T19:19:19.834Z,7.97
2023-06-19T19:21:53.911Z,8.75
2023-06-19T19:24:23.736Z,7.95
2023-06-19T19:26:50.784Z,6.72
2023-06-19T19:29:17.558Z,7.15
2023-06-19T19:31:44.460Z,7.03
2023-06-19T19:34:12.485Z,6.72
2023-06-19T19:36:39.198Z,6.70
2023-06-19T19:39:05.926Z,6.70
2023-06-19T19:41:32.718Z,6.95
2023-06-19T19:43:59.426Z,6.53
2023-06-19T19:46:26.560Z,7.55
2023-06-19T19:48:53.861Z,7.95
2023-06-19T19:51:20.581Z,7.07
2023-06-19T19:53:47.358Z,6.82
2023-06-19T19:56:14.030Z,7.45
2023-06-19T19:58:40.734Z,7.60
2023-06-19T20:01:07.606Z,7.43
2023-06-19T20:03:37.502Z,6.72
2023-06-19T20:06:04.412Z,6.75
2023-06-19T20:08:31.231Z,7.20
2023-06-19T20:10:57.875Z,6.70
2023-06-19T20:13:26.378Z,6.53
2023-06-19T20:15:53.181Z,6.53
2023-06-19T20:18:20.843Z,7.25
2023-06-19T20:20:47.632Z,7.22
2023-06-19T20:23:14.511Z,8.50
2023-06-19T20:25:41.166Z,7.32
2023-06-19T20:28:08.911Z,6.82
2023-06-19T20:30:36.014Z,8.02
2023-06-19T20:33:02.915Z,7.57
2023-06-19T20:35:29.728Z,7.20
2023-06-19T20:37:56.488Z,7.72
2023-06-19T20:40:25.576Z,7.43
2023-06-19T20:42:52.670Z,7.60
2023-06-19T20:45:29.495Z,7.22
2023-06-19T20:47:56.437Z,8.25
2023-06-19T20:50:23.864Z,7.75
2023-06-19T20:52:51.041Z,7.53
2023-06-19T20:55:18.077Z,7.20
2023-06-19T20:57:45.026Z,7.63
2023-06-19T21:00:13.404Z,7.40
2023-06-19T21:02:40.381Z,6.93
2023-06-19T21:05:12.369Z,6.70
2023-06-19T21:07:39.096Z,7.00
2023-06-19T21:10:06.361Z,7.45
2023-06-19T21:12:33.362Z,7.03
2023-06-19T21:15:00.219Z,7.43
2023-06-19T21:17:27.096Z,8.18
2023-06-19T21:19:53.936Z,7.30
2023-06-19T21:22:20.698Z,8.07
2023-06-19T21:24:47.525Z,7.50
2023-06-19T21:27:14.269Z,6.38
2023-06-19T21:29:41.050Z,7.13
2023-06-19T21:32:17.780Z,6.68
2023-06-19T21:34:44.506Z,6.80
2023-06-19T21:37:11.145Z,7.43
2023-06-19T21:39:37.890Z,6.70
2023-06-19T21:42:04.710Z,8.23
2023-06-19T21:44:31.546Z,7.47
2023-06-19T21:46:58.307Z,8.27
2023-06-19T21:49:25.413Z,7.53
2023-06-19T21:51:52.425Z,8.05
2023-06-19T21:54:19.109Z,8.10
2023-06-19T21:56:45.806Z,7.95
2023-06-19T21:59:12.527Z,8.25
2023-06-19T22:01:40.567Z,7.13
2023-06-19T22:04:08.513Z,7.13
2023-06-19T22:06:35.429Z,7.30
2023-06-19T22:09:02.685Z,7.82
2023-06-19T22:11:29.653Z,7.80
2023-06-19T22:13:57.237Z,8.43
2023-06-19T22:16:24.516Z,7.53
2023-06-19T22:18:51.379Z,7.88
2023-06-19T22:21:18.078Z,7.35
2023-06-19T22:23:45.042Z,7.07
2023-06-19T22:26:12.062Z,7.60
2023-06-19T22:28:38.762Z,7.43
2023-06-19T22:31:07.473Z,7.00
2023-06-19T22:33:34.414Z,7.55
2023-06-19T22:36:01.074Z,7.13
2023-06-19T22:38:28.948Z,7.10
2023-06-19T22:40:55.685Z,7.55
2023-06-19T22:43:22.458Z,7.50
2023-06-19T22:45:49.304Z,8.27
2023-06-19T22:48:19.467Z,7.45
2023-06-19T22:50:47.223Z,7.57
2023-06-19T22:53:14.043Z,7.57
2023-06-19T22:55:40.719Z,6.93
2023-06-19T22:58:07.406Z,7.10
2023-06-19T23:00:35.080Z,6.90
2023-06-19T23:03:02.034Z,7.03
2023-06-19T23:05:29.254Z,7.47
2023-06-19T23:07:56.776Z,7.13
2023-06-19T23:10:23.532Z,7.28
2023-06-19T23:12:50.249Z,7.22
2023-06-19T23:15:17.095Z,7.38
2023-06-19T23:17:44.375Z,8.05
2023-06-19T23:20:15.421Z,7.70
2023-06-19T23:22:42.207Z,7.35
2023-06-19T23:25:09.474Z,7.60
2023-06-19T23:27:36.291Z,7.25
2023-06-19T23:30:03.527Z,7.70
2023-06-19T23:32:30.269Z,7.80
2023-06-19T23:34:59.020Z,7.85
2023-06-19T23:37:27.938Z,7.60
2023-06-19T23:39:55.198Z,7.07
2023-06-19T23:42:21.995Z,8.75
2023-06-19T23:44:48.688Z,8.48
2023-06-19T23:47:15.422Z,7.30
2023-06-19T23:49:42.881Z,8.07
2023-06-19T23:52:09.890Z,7.80
2023-06-19T23:54:36.594Z,7.95
2023-06-19T23:57:03.947Z,7.63
2023-06-19T23:59:30.690Z,7.90
